createdAt,value
2022-11-29T00:00:18.637Z,37.10
2022-11-29T00:10:18.385Z,29.00
2022-11-29T00:20:18.300Z,39.90
2022-11-29T00:30:18.312Z,39.40
2022-11-29T00:40:18.330Z,32.50
2022-11-29T00:50:18.332Z,41.10
2022-11-29T01:00:18.341Z,42.30
2022-11-29T01:10:18.339Z,40.20
2022-11-29T01:20:18.324Z,39.70
2022-11-29T01:30:18.414Z,37.60
2022-11-29T01:40:18.320Z,36.90
2022-11-29T01:50:18.340Z,37.00
2022-11-29T02:00:18.429Z,39.10
2022-11-29T02:10:18.329Z,37.70
2022-11-29T02:20:18.339Z,35.30
2022-11-29T02:30:18.342Z,35.80
2022-11-29T02:40:18.339Z,33.30
2022-11-29T02:50:18.369Z,34.00
2022-11-29T03:00:18.365Z,31.20
2022-11-29T03:10:18.358Z,28.80
2022-11-29T03:20:18.380Z,26.60
2022-11-29T03:30:18.345Z,31.30
2022-11-29T03:40:18.361Z,31.70
2022-11-29T03:50:18.365Z,32.40
2022-11-29T04:00:18.380Z,35.30
2022-11-29T04:10:18.392Z,30.70
2022-11-29T04:20:18.365Z,31.40
2022-11-29T04:30:18.406Z,29.20
2022-11-29T04:40:18.405Z,33.10
2022-11-29T04:50:18.421Z,31.80
2022-11-29T05:00:18.389Z,34.40
2022-11-29T05:10:18.381Z,33.50
2022-11-29T05:20:18.415Z,33.50
2022-11-29T05:30:18.423Z,34.10
2022-11-29T05:40:18.502Z,30.40
2022-11-29T05:50:18.408Z,34.00
2022-11-29T06:10:18.417Z,32.40
2022-11-29T06:20:18.426Z,33.00
2022-11-29T06:30:18.537Z,33.30
2022-11-29T06:40:18.413Z,33.20
2022-11-29T06:50:18.475Z,33.00
2022-11-29T07:00:18.486Z,35.30
2022-11-29T07:10:18.451Z,32.70
2022-11-29T07:20:18.455Z,33.40
2022-11-29T07:30:18.434Z,34.10
2022-11-29T07:40:18.485Z,26.60
2022-11-29T07:50:18.433Z,32.30
2022-11-29T08:00:18.438Z,33.10
2022-11-29T08:10:18.524Z,29.30
2022-11-29T08:20:18.522Z,34.70
2022-11-29T08:30:18.490Z,37.30
2022-11-29T08:40:18.494Z,32.20
2022-11-29T08:50:18.485Z,32.40
2022-11-29T09:00:18.467Z,35.10
2022-11-29T09:10:18.486Z,33.70
2022-11-29T09:20:18.482Z,35.00
2022-11-29T09:30:23.517Z,33.50
2022-11-29T09:40:18.494Z,34.00
2022-11-29T09:50:18.474Z,36.40
2022-11-29T10:00:18.497Z,32.10
2022-11-29T10:10:18.624Z,34.10
2022-11-29T10:20:18.734Z,35.30
2022-11-29T10:30:18.637Z,36.10
2022-11-29T10:40:18.510Z,24.20
2022-11-29T10:50:18.532Z,24.80
2022-11-29T11:00:18.532Z,35.70
2022-11-29T11:10:18.505Z,35.90
2022-11-29T11:20:18.506Z,34.60
2022-11-29T11:30:18.542Z,36.30
2022-11-29T11:40:18.654Z,36.40
2022-11-29T11:50:18.538Z,37.90
2022-11-29T12:00:29.511Z,34.60
2022-11-29T12:10:18.535Z,33.30
2022-11-29T12:20:18.606Z,36.20
2022-11-29T12:30:18.524Z,42.70
2022-11-29T12:40:18.536Z,37.60
2022-11-29T12:50:18.542Z,37.20
2022-11-29T13:00:18.532Z,37.00
2022-11-29T13:10:18.883Z,35.50
2022-11-29T13:20:18.597Z,38.30
2022-11-29T13:30:18.550Z,37.80
2022-11-29T13:40:18.541Z,38.70
2022-11-29T13:50:18.654Z,40.70
2022-11-29T14:00:18.585Z,38.10
2022-11-29T14:10:28.429Z,37.70
2022-11-29T14:20:18.587Z,39.00
2022-11-29T14:30:18.594Z,42.40
2022-11-29T14:40:18.592Z,42.00
2022-11-29T14:50:18.577Z,40.60
2022-11-29T15:00:18.611Z,41.70
2022-11-29T15:10:18.580Z,38.50
2022-11-29T15:20:18.611Z,43.80
2022-11-29T15:30:18.615Z,48.10
2022-11-29T15:40:18.613Z,41.80
2022-11-29T15:50:18.779Z,41.30
2022-11-29T16:00:18.667Z,47.50
2022-11-29T16:10:18.714Z,44.40
2022-11-29T16:20:18.710Z,46.60
2022-11-29T16:30:18.621Z,41.00
2022-11-29T16:40:18.649Z,47.40
2022-11-29T16:50:18.633Z,44.70
2022-11-29T17:00:18.643Z,45.20
2022-11-29T17:10:18.661Z,47.50
2022-11-29T17:20:18.639Z,43.80
2022-11-29T17:30:18.657Z,46.60
2022-11-29T17:40:18.699Z,48.10
2022-11-29T17:50:18.651Z,44.10
2022-11-29T18:00:18.637Z,47.60
2022-11-29T18:10:18.667Z,48.90
2022-11-29T18:20:18.647Z,49.80
2022-11-29T18:30:18.656Z,46.50
2022-11-29T18:40:18.664Z,45.10
2022-11-29T18:50:18.684Z,47.50
2022-11-29T19:00:18.661Z,45.50
2022-11-29T19:10:18.658Z,46.10
2022-11-29T19:20:18.664Z,46.00
2022-11-29T19:30:18.663Z,44.60
2022-11-29T19:40:18.697Z,48.00
2022-11-29T19:50:18.741Z,47.60
2022-11-29T20:00:18.733Z,46.00
2022-11-29T20:10:18.730Z,44.80
2022-11-29T20:20:18.779Z,43.30
2022-11-29T20:30:18.784Z,43.80
2022-11-29T20:40:18.712Z,41.70
2022-11-29T20:50:23.110Z,29.40
2022-11-29T21:00:18.711Z,43.20
2022-11-29T21:10:18.785Z,43.90
2022-11-29T21:20:18.803Z,49.00
2022-11-29T21:30:18.741Z,48.80
2022-11-29T21:40:18.709Z,37.20
2022-11-29T21:50:18.707Z,42.80
2022-11-29T22:00:18.751Z,47.10
2022-11-29T22:10:18.739Z,45.60
2022-11-29T22:20:18.737Z,44.20
2022-11-29T22:30:18.748Z,46.30
2022-11-29T22:40:18.753Z,49.40
2022-11-29T23:00:18.759Z,46.40
2022-11-29T23:10:18.756Z,43.70
2022-11-29T23:20:18.812Z,44.80
2022-11-29T23:30:18.763Z,50.40
2022-11-29T23:40:18.776Z,53.40
2022-11-29T23:50:18.764Z,34.20
